sensor_id;sensor_type;location;lat;lon;timestamp;pressure;altitude;pressure_sealevel;temperature;humidity
60874;BME280;46715;40.642;-7.920;2023-02-22T00:00:38;96581.75;;;10.81;100.00
60874;BME280;46715;40.642;-7.920;2023-02-22T00:02:45;96582.81;;;10.80;100.00
60874;BME280;46715;40.642;-7.920;2023-02-22T00:04:47;96581.00;;;10.86;100.00
60874;BME280;46715;40.642;-7.920;2023-02-22T00:06:49;96583.31;;;10.82;100.00
60874;BME280;46715;40.642;-7.920;2023-02-22T00:08:50;96585.69;;;10.79;100.00
60874;BME280;46715;40.642;-7.920;2023-02-22T00:10:59;96579.94;;;10.77;100.00
60874;BME280;46715;40.642;-7.920;2023-02-22T00:13:00;96581.50;;;10.72;100.00
60874;BME280;46715;40.642;-7.920;2023-02-22T00:15:01;96583.28;;;10.62;100.00
60874;BME280;46715;40.642;-7.920;2023-02-22T00:17:02;96574.16;;;10.59;100.00
60874;BME280;46715;40.642;-7.920;2023-02-22T00:19:03;96585.91;;;10.56;100.00
60874;BME280;46715;40.642;-7.920;2023-02-22T00:21:05;96586.69;;;10.57;100.00
60874;BME280;46715;40.642;-7.920;2023-02-22T00:23:18;96575.22;;;10.58;100.00
60874;BME280;46715;40.642;-7.920;2023-02-22T00:25:22;96587.72;;;10.61;100.00
60874;BME280;46715;40.642;-7.920;2023-02-22T00:27:23;96574.69;;;10.61;100.00
60874;BME280;46715;40.642;-7.920;2023-02-22T00:29:24;96580.19;;;10.60;100.00
60874;BME280;46715;40.642;-7.920;2023-02-22T00:31:25;96578.06;;;10.62;100.00
60874;BME280;46715;40.642;-7.920;2023-02-22T00:33:26;96580.41;;;10.63;100.00
60874;BME280;46715;40.642;-7.920;2023-02-22T00:35:29;96575.47;;;10.56;100.00
60874;BME280;46715;40.642;-7.920;2023-02-22T00:37:31;96575.19;;;10.48;100.00
60874;BME280;46715;40.642;-7.920;2023-02-22T00:39:32;96574.41;;;10.42;100.00
60874;BME280;46715;40.642;-7.920;2023-02-22T00:41:33;96572.84;;;10.46;100.00
60874;BME280;46715;40.642;-7.920;2023-02-22T00:43:34;96562.66;;;10.39;100.00
60874;BME280;46715;40.642;-7.920;2023-02-22T00:45:35;96564.50;;;10.39;100.00
60874;BME280;46715;40.642;-7.920;2023-02-22T00:47:37;96562.16;;;10.43;100.00
60874;BME280;46715;40.642;-7.920;2023-02-22T00:49:37;96560.59;;;10.52;100.00
60874;BME280;46715;40.642;-7.920;2023-02-22T00:51:38;96551.19;;;10.40;100.00
60874;BME280;46715;40.642;-7.920;2023-02-22T00:53:39;96566.31;;;10.38;100.00
60874;BME280;46715;40.642;-7.920;2023-02-22T00:55:40;96556.94;;;10.43;100.00
60874;BME280;46715;40.642;-7.920;2023-02-22T00:57:41;96552.78;;;10.52;100.00
60874;BME280;46715;40.642;-7.920;2023-02-22T00:59:42;96546.53;;;10.53;100.00
60874;BME280;46715;40.642;-7.920;2023-02-22T01:01:43;96553.56;;;10.47;100.00
60874;BME280;46715;40.642;-7.920;2023-02-22T01:03:46;96553.00;;;10.35;100.00
60874;BME280;46715;40.642;-7.920;2023-02-22T01:05:47;96558.22;;;10.35;100.00
60874;BME280;46715;40.642;-7.920;2023-02-22T01:07:48;96560.00;;;10.29;100.00
60874;BME280;46715;40.642;-7.920;2023-02-22T01:09:49;96566.59;;;10.37;100.00
60874;BME280;46715;40.642;-7.920;2023-02-22T01:11:54;96554.78;;;10.29;100.00
60874;BME280;46715;40.642;-7.920;2023-02-22T01:13:55;96556.34;;;10.25;100.00
60874;BME280;46715;40.642;-7.920;2023-02-22T01:15:57;96560.06;;;10.34;100.00
60874;BME280;46715;40.642;-7.920;2023-02-22T01:18:00;96560.31;;;10.38;100.00
60874;BME280;46715;40.642;-7.920;2023-02-22T01:20:02;96557.16;;;10.31;100.00
60874;BME280;46715;40.642;-7.920;2023-02-22T01:22:07;96557.91;;;10.26;100.00
60874;BME280;46715;40.642;-7.920;2023-02-22T01:24:08;96559.22;;;10.23;100.00
60874;BME280;46715;40.642;-7.920;2023-02-22T01:26:09;96551.19;;;10.35;100.00
60874;BME280;46715;40.642;-7.920;2023-02-22T01:28:10;96556.38;;;10.30;100.00
60874;BME280;46715;40.642;-7.920;2023-02-22T01:30:13;96564.44;;;10.23;100.00
60874;BME280;46715;40.642;-7.920;2023-02-22T01:32:14;96558.94;;;10.15;100.00
60874;BME280;46715;40.642;-7.920;2023-02-22T01:34:16;96563.13;;;10.21;100.00
60874;BME280;46715;40.642;-7.920;2023-02-22T01:36:17;96557.09;;;10.05;100.00
60874;BME280;46715;40.642;-7.920;2023-02-22T01:38:19;96566.44;;;10.01;100.00
60874;BME280;46715;40.642;-7.920;2023-02-22T01:40:27;96554.16;;;9.96;100.00
60874;BME280;46715;40.642;-7.920;2023-02-22T01:42:29;96550.25;;;9.94;100.00
60874;BME280;46715;40.642;-7.920;2023-02-22T01:44:33;96550.00;;;9.90;100.00
60874;BME280;46715;40.642;-7.920;2023-02-22T01:46:35;96539.84;;;9.88;100.00
60874;BME280;46715;40.642;-7.920;2023-02-22T01:48:42;96545.78;;;9.84;100.00
60874;BME280;46715;40.642;-7.920;2023-02-22T01:50:47;96546.03;;;9.82;100.00
60874;BME280;46715;40.642;-7.920;2023-02-22T01:52:49;96549.69;;;9.76;100.00
60874;BME280;46715;40.642;-7.920;2023-02-22T01:54:56;96536.38;;;9.72;100.00
60874;BME280;46715;40.642;-7.920;2023-02-22T01:59:05;96546.28;;;9.70;100.00
60874;BME280;46715;40.642;-7.920;2023-02-22T02:01:08;96537.72;;;9.80;100.00
60874;BME280;46715;40.642;-7.920;2023-02-22T02:03:19;96544.47;;;9.76;100.00
60874;BME280;46715;40.642;-7.920;2023-02-22T02:05:21;96542.34;;;9.68;100.00
60874;BME280;46715;40.642;-7.920;2023-02-22T02:07:24;96541.28;;;9.64;100.00
60874;BME280;46715;40.642;-7.920;2023-02-22T02:09:35;96540.78;;;9.67;100.00
60874;BME280;46715;40.642;-7.920;2023-02-22T02:11:37;96541.81;;;9.66;100.00
60874;BME280;46715;40.642;-7.920;2023-02-22T02:13:42;96542.34;;;9.73;100.00
60874;BME280;46715;40.642;-7.920;2023-02-22T02:15:43;96540.53;;;9.73;100.00
60874;BME280;46715;40.642;-7.920;2023-02-22T02:17:45;96537.19;;;9.83;100.00
60874;BME280;46715;40.642;-7.920;2023-02-22T02:22:22;96545.00;;;9.83;100.00
60874;BME280;46715;40.642;-7.920;2023-02-22T02:29:19;96529.09;;;9.80;100.00
60874;BME280;46715;40.642;-7.920;2023-02-22T02:34:33;96527.03;;;9.82;100.00
60874;BME280;46715;40.642;-7.920;2023-02-22T02:37:11;96530.44;;;9.87;100.00
60874;BME280;46715;40.642;-7.920;2023-02-22T02:39:26;96527.59;;;9.89;100.00
60874;BME280;46715;40.642;-7.920;2023-02-22T02:41:34;96520.03;;;9.87;100.00
60874;BME280;46715;40.642;-7.920;2023-02-22T02:44:40;96523.66;;;9.86;100.00
60874;BME280;46715;40.642;-7.920;2023-02-22T02:48:42;96518.47;;;9.92;100.00
60874;BME280;46715;40.642;-7.920;2023-02-22T02:50:47;96523.19;;;10.00;100.00
60874;BME280;46715;40.642;-7.920;2023-02-22T02:52:52;96511.72;;;9.96;100.00
60874;BME280;46715;40.642;-7.920;2023-02-22T02:54:55;96513.00;;;9.93;100.00
60874;BME280;46715;40.642;-7.920;2023-02-22T02:56:57;96515.09;;;9.96;100.00
60874;BME280;46715;40.642;-7.920;2023-02-22T02:58:58;96509.38;;;9.94;100.00
60874;BME280;46715;40.642;-7.920;2023-02-22T03:01:01;96514.84;;;9.98;100.00
60874;BME280;46715;40.642;-7.920;2023-02-22T03:15:12;96504.47;;;10.18;100.00
60874;BME280;46715;40.642;-7.920;2023-02-22T03:17:27;96497.19;;;10.20;100.00
60874;BME280;46715;40.642;-7.920;2023-02-22T03:26:26;96494.56;;;10.26;100.00
60874;BME280;46715;40.642;-7.920;2023-02-22T03:28:32;96497.19;;;10.26;100.00
60874;BME280;46715;40.642;-7.920;2023-02-22T03:30:38;96491.97;;;10.26;100.00
60874;BME280;46715;40.642;-7.920;2023-02-22T03:32:46;96493.03;;;10.24;100.00
60874;BME280;46715;40.642;-7.920;2023-02-22T03:35:02;96489.63;;;10.24;100.00
60874;BME280;46715;40.642;-7.920;2023-02-22T03:37:12;96492.78;;;10.26;100.00
60874;BME280;46715;40.642;-7.920;2023-02-22T03:39:18;96486.00;;;10.30;100.00
60874;BME280;46715;40.642;-7.920;2023-02-22T03:41:22;96486.25;;;10.29;100.00
60874;BME280;46715;40.642;-7.920;2023-02-22T03:43:35;96481.56;;;10.31;100.00
60874;BME280;46715;40.642;-7.920;2023-02-22T03:45:42;96484.94;;;10.31;100.00
60874;BME280;46715;40.642;-7.920;2023-02-22T03:47:47;96485.47;;;10.33;100.00
60874;BME280;46715;40.642;-7.920;2023-02-22T03:49:55;96487.31;;;10.33;100.00
60874;BME280;46715;40.642;-7.920;2023-02-22T03:51:59;96491.72;;;10.27;100.00
60874;BME280;46715;40.642;-7.920;2023-02-22T03:54:03;96485.19;;;10.30;100.00
60874;BME280;46715;40.642;-7.920;2023-02-22T03:56:14;96491.50;;;10.49;100.00
60874;BME280;46715;40.642;-7.920;2023-02-22T03:58:20;96487.06;;;10.60;100.00
60874;BME280;46715;40.642;-7.920;2023-02-22T04:00:26;96501.94;;;10.54;100.00
60874;BME280;46715;40.642;-7.920;2023-02-22T04:02:27;96500.63;;;10.42;100.00
60874;BME280;46715;40.642;-7.920;2023-02-22T04:04:28;96494.06;;;10.29;100.00
60874;BME280;46715;40.642;-7.920;2023-02-22T04:06:29;96503.69;;;10.28;100.00
60874;BME280;46715;40.642;-7.920;2023-02-22T04:08:30;96494.06;;;10.29;100.00
60874;BME280;46715;40.642;-7.920;2023-02-22T04:10:31;96504.50;;;10.34;100.00
60874;BME280;46715;40.642;-7.920;2023-02-22T04:12:34;96495.88;;;10.28;100.00
60874;BME280;46715;40.642;-7.920;2023-02-22T04:14:37;96496.16;;;10.27;100.00
60874;BME280;46715;40.642;-7.920;2023-02-22T04:16:38;96498.75;;;10.27;100.00
60874;BME280;46715;40.642;-7.920;2023-02-22T04:18:42;96498.75;;;10.27;100.00
60874;BME280;46715;40.642;-7.920;2023-02-22T04:20:45;96498.22;;;10.30;100.00
60874;BME280;46715;40.642;-7.920;2023-02-22T04:22:54;96503.47;;;10.35;100.00
60874;BME280;46715;40.642;-7.920;2023-02-22T04:24:55;96503.22;;;10.36;100.00
60874;BME280;46715;40.642;-7.920;2023-02-22T04:26:56;96494.06;;;10.34;100.00
60874;BME280;46715;40.642;-7.920;2023-02-22T04:28:57;96502.44;;;10.36;100.00
60874;BME280;46715;40.642;-7.920;2023-02-22T04:31:02;96507.16;;;10.39;100.00
60874;BME280;46715;40.642;-7.920;2023-02-22T04:33:03;96499.06;;;10.40;100.00
60874;BME280;46715;40.642;-7.920;2023-02-22T04:35:05;96506.91;;;10.51;100.00
60874;BME280;46715;40.642;-7.920;2023-02-22T04:37:06;96504.28;;;10.56;100.00
60874;BME280;46715;40.642;-7.920;2023-02-22T04:39:09;96509.22;;;10.57;100.00
60874;BME280;46715;40.642;-7.920;2023-02-22T04:41:10;96504.31;;;10.51;100.00
60874;BME280;46715;40.642;-7.920;2023-02-22T04:43:11;96506.91;;;10.51;100.00
60874;BME280;46715;40.642;-7.920;2023-02-22T04:45:13;96511.06;;;10.52;100.00
60874;BME280;46715;40.642;-7.920;2023-02-22T04:47:14;96513.66;;;10.52;100.00
60874;BME280;46715;40.642;-7.920;2023-02-22T04:49:15;96515.25;;;10.53;100.00
60874;BME280;46715;40.642;-7.920;2023-02-22T04:51:17;96509.50;;;10.56;100.00
60874;BME280;46715;40.642;-7.920;2023-02-22T04:53:29;96511.84;;;10.37;100.00
60874;BME280;46715;40.642;-7.920;2023-02-22T04:55:30;96511.81;;;10.32;100.00
60874;BME280;46715;40.642;-7.920;2023-02-22T04:57:31;96510.75;;;10.33;100.00
60874;BME280;46715;40.642;-7.920;2023-02-22T04:59:32;96505.28;;;10.29;100.00
60874;BME280;46715;40.642;-7.920;2023-02-22T05:01:36;96507.09;;;10.23;100.00
60874;BME280;46715;40.642;-7.920;2023-02-22T05:03:37;96502.91;;;10.22;100.00
60874;BME280;46715;40.642;-7.920;2023-02-22T05:05:38;96512.03;;;10.25;100.00
60874;BME280;46715;40.642;-7.920;2023-02-22T05:07:38;96511.25;;;10.30;100.00
60874;BME280;46715;40.642;-7.920;2023-02-22T05:09:40;96510.47;;;10.24;100.00
60874;BME280;46715;40.642;-7.920;2023-02-22T05:11:41;96511.28;;;10.24;100.00
60874;BME280;46715;40.642;-7.920;2023-02-22T05:13:44;96509.44;;;10.25;100.00
60874;BME280;46715;40.642;-7.920;2023-02-22T05:15:44;96505.25;;;10.24;100.00
60874;BME280;46715;40.642;-7.920;2023-02-22T05:17:49;96510.22;;;10.20;100.00
60874;BME280;46715;40.642;-7.920;2023-02-22T05:19:50;96502.16;;;10.22;100.00
60874;BME280;46715;40.642;-7.920;2023-02-22T05:21:51;96507.34;;;10.22;100.00
60874;BME280;46715;40.642;-7.920;2023-02-22T05:23:52;96507.09;;;10.23;100.00
60874;BME280;46715;40.642;-7.920;2023-02-22T05:25:53;96511.25;;;10.30;100.00
60874;BME280;46715;40.642;-7.920;2023-02-22T05:28:06;96510.53;;;10.34;100.00
60874;BME280;46715;40.642;-7.920;2023-02-22T05:30:10;96521.72;;;10.35;100.00
60874;BME280;46715;40.642;-7.920;2023-02-22T05:32:11;96514.69;;;10.35;100.00
60874;BME280;46715;40.642;-7.920;2023-02-22T05:34:12;96517.53;;;10.34;100.00
60874;BME280;46715;40.642;-7.920;2023-02-22T05:36:13;96516.75;;;10.33;100.00
60874;BME280;46715;40.642;-7.920;2023-02-22T05:38:15;96521.22;;;10.43;100.00
60874;BME280;46715;40.642;-7.920;2023-02-22T05:40:21;96516.00;;;10.43;100.00
60874;BME280;46715;40.642;-7.920;2023-02-22T05:42:22;96526.69;;;10.42;100.00
60874;BME280;46715;40.642;-7.920;2023-02-22T05:44:23;96519.34;;;10.33;100.00
60874;BME280;46715;40.642;-7.920;2023-02-22T05:46:24;96520.66;;;10.31;100.00
60874;BME280;46715;40.642;-7.920;2023-02-22T05:48:25;96520.13;;;10.29;100.00
60874;BME280;46715;40.642;-7.920;2023-02-22T05:50:26;96524.56;;;10.28;100.00
60874;BME280;46715;40.642;-7.920;2023-02-22T05:52:27;96517.28;;;10.30;100.00
60874;BME280;46715;40.642;-7.920;2023-02-22T05:54:28;96523.56;;;10.34;100.00
60874;BME280;46715;40.642;-7.920;2023-02-22T05:56:29;96523.25;;;10.31;100.00
60874;BME280;46715;40.642;-7.920;2023-02-22T05:58:30;96515.97;;;10.28;100.00
60874;BME280;46715;40.642;-7.920;2023-02-22T06:00:31;96507.59;;;10.26;100.00
60874;BME280;46715;40.642;-7.920;2023-02-22T06:02:32;96510.22;;;10.26;100.00
60874;BME280;46715;40.642;-7.920;2023-02-22T06:04:33;96513.66;;;10.42;100.00
60874;BME280;46715;40.642;-7.920;2023-02-22T06:06:34;96517.84;;;10.48;100.00
60874;BME280;46715;40.642;-7.920;2023-02-22T06:08:35;96512.09;;;10.40;100.00
60874;BME280;46715;40.642;-7.920;2023-02-22T06:10:36;96508.72;;;10.40;100.00
60874;BME280;46715;40.642;-7.920;2023-02-22T06:12:36;96510.28;;;10.51;100.00
60874;BME280;46715;40.642;-7.920;2023-02-22T06:14:37;96506.88;;;10.56;99.84
60874;BME280;46715;40.642;-7.920;2023-02-22T06:16:40;96508.97;;;10.59;99.58
60874;BME280;46715;40.642;-7.920;2023-02-22T06:18:46;96514.19;;;10.49;99.67
60874;BME280;46715;40.642;-7.920;2023-02-22T06:20:47;96516.78;;;10.38;100.00
60874;BME280;46715;40.642;-7.920;2023-02-22T06:22:49;96514.66;;;10.30;100.00
60874;BME280;46715;40.642;-7.920;2023-02-22T06:24:51;96517.50;;;10.23;100.00
60874;BME280;46715;40.642;-7.920;2023-02-22T06:26:55;96514.38;;;10.16;100.00
60874;BME280;46715;40.642;-7.920;2023-02-22T06:28:56;96510.97;;;10.16;100.00
60874;BME280;46715;40.642;-7.920;2023-02-22T06:30:57;96505.78;;;10.21;100.00
60874;BME280;46715;40.642;-7.920;2023-02-22T06:32:58;96500.28;;;10.17;100.00
60874;BME280;46715;40.642;-7.920;2023-02-22T06:34:59;96496.91;;;10.27;100.00
60874;BME280;46715;40.642;-7.920;2023-02-22T06:37:00;96501.38;;;10.32;100.00
60874;BME280;46715;40.642;-7.920;2023-02-22T06:39:01;96502.91;;;10.12;100.00
60874;BME280;46715;40.642;-7.920;2023-02-22T06:41:02;96510.69;;;9.97;100.00
60874;BME280;46715;40.642;-7.920;2023-02-22T06:43:04;96495.00;;;9.81;100.00
60874;BME280;46715;40.642;-7.920;2023-02-22T06:45:05;96497.06;;;9.69;100.00
60874;BME280;46715;40.642;-7.920;2023-02-22T06:47:07;96496.25;;;9.68;100.00
60874;BME280;46715;40.642;-7.920;2023-02-22T06:49:07;96504.56;;;9.65;100.00
60874;BME280;46715;40.642;-7.920;2023-02-22T06:51:09;96506.03;;;9.41;100.00
60874;BME280;46715;40.642;-7.920;2023-02-22T06:53:10;96506.19;;;9.24;100.00
60874;BME280;46715;40.642;-7.920;2023-02-22T06:55:10;96506.38;;;9.12;100.00
60874;BME280;46715;40.642;-7.920;2023-02-22T06:57:11;96504.03;;;9.10;100.00
60874;BME280;46715;40.642;-7.920;2023-02-22T06:59:12;96504.50;;;9.02;100.00
60874;BME280;46715;40.642;-7.920;2023-02-22T07:01:13;96502.19;;;9.06;100.00
60874;BME280;46715;40.642;-7.920;2023-02-22T07:03:14;96507.59;;;8.99;100.00
60874;BME280;46715;40.642;-7.920;2023-02-22T07:05:17;96505.47;;;8.91;100.00
60874;BME280;46715;40.642;-7.920;2023-02-22T07:07:21;96507.81;;;8.87;100.00
60874;BME280;46715;40.642;-7.920;2023-02-22T07:09:23;96520.25;;;8.85;100.00
60874;BME280;46715;40.642;-7.920;2023-02-22T07:11:23;96511.44;;;8.86;100.00
60874;BME280;46715;40.642;-7.920;2023-02-22T07:13:24;96508.84;;;8.91;100.00
60874;BME280;46715;40.642;-7.920;2023-02-22T07:15:27;96519.34;;;9.01;100.00
60874;BME280;46715;40.642;-7.920;2023-02-22T07:17:28;96525.84;;;9.04;100.00
60874;BME280;46715;40.642;-7.920;2023-02-22T07:19:29;96515.19;;;9.06;100.00
60874;BME280;46715;40.642;-7.920;2023-02-22T07:21:30;96518.09;;;9.14;100.00
60874;BME280;46715;40.642;-7.920;2023-02-22T07:23:31;96515.50;;;9.14;100.00
60874;BME280;46715;40.642;-7.920;2023-02-22T07:25:32;96522.84;;;9.23;100.00
60874;BME280;46715;40.642;-7.920;2023-02-22T07:27:35;96516.66;;;9.29;100.00
60874;BME280;46715;40.642;-7.920;2023-02-22T07:29:36;96512.25;;;9.34;100.00
60874;BME280;46715;40.642;-7.920;2023-02-22T07:31:37;96519.59;;;9.43;100.00
60874;BME280;46715;40.642;-7.920;2023-02-22T07:33:38;96515.69;;;9.50;100.00
60874;BME280;46715;40.642;-7.920;2023-02-22T07:35:47;96525.63;;;9.59;100.00
60874;BME280;46715;40.642;-7.920;2023-02-22T07:37:48;96527.72;;;9.62;100.00
60874;BME280;46715;40.642;-7.920;2023-02-22T07:39:49;96522.28;;;9.68;100.00
60874;BME280;46715;40.642;-7.920;2023-02-22T07:41:50;96540.56;;;9.79;100.00
60874;BME280;46715;40.642;-7.920;2023-02-22T07:43:57;96538.28;;;9.93;100.00
60874;BME280;46715;40.642;-7.920;2023-02-22T07:45:59;96542.47;;;10.09;100.00
60874;BME280;46715;40.642;-7.920;2023-02-22T07:48:03;96542.53;;;10.24;100.00
60874;BME280;46715;40.642;-7.920;2023-02-22T07:50:04;96547.03;;;10.45;100.00
60874;BME280;46715;40.642;-7.920;2023-02-22T07:52:05;96538.47;;;10.75;100.00
60874;BME280;46715;40.642;-7.920;2023-02-22T07:54:07;96545.22;;;11.22;100.00
60874;BME280;46715;40.642;-7.920;2023-02-22T07:56:08;96550.03;;;11.81;98.06
60874;BME280;46715;40.642;-7.920;2023-02-22T07:58:12;96551.88;;;12.35;93.68
60874;BME280;46715;40.642;-7.920;2023-02-22T08:00:20;96553.81;;;12.99;91.45
60874;BME280;46715;40.642;-7.920;2023-02-22T08:02:21;96547.78;;;13.57;88.16
60874;BME280;46715;40.642;-7.920;2023-02-22T08:04:22;96552.66;;;14.12;85.68
60874;BME280;46715;40.642;-7.920;2023-02-22T08:06:23;96549.47;;;14.72;83.60
60874;BME280;46715;40.642;-7.920;2023-02-22T08:08:25;96555.28;;;15.35;79.63
60874;BME280;46715;40.642;-7.920;2023-02-22T08:10:27;96553.94;;;15.93;76.97
60874;BME280;46715;40.642;-7.920;2023-02-22T08:12:28;96558.78;;;16.28;72.94
60874;BME280;46715;40.642;-7.920;2023-02-22T08:14:28;96559.91;;;16.72;70.29
60874;BME280;46715;40.642;-7.920;2023-02-22T08:16:29;96551.06;;;17.13;66.15
60874;BME280;46715;40.642;-7.920;2023-02-22T08:18:30;96552.63;;;17.54;65.57
60874;BME280;46715;40.642;-7.920;2023-02-22T08:20:31;96552.88;;;17.76;61.71
60874;BME280;46715;40.642;-7.920;2023-02-22T08:22:32;96549.75;;;17.73;61.96
60874;BME280;46715;40.642;-7.920;2023-02-22T08:24:33;96553.28;;;18.09;60.14
60874;BME280;46715;40.642;-7.920;2023-02-22T08:26:34;96551.28;;;18.23;59.93
60874;BME280;46715;40.642;-7.920;2023-02-22T08:28:35;96554.22;;;18.13;60.59
60874;BME280;46715;40.642;-7.920;2023-02-22T08:30:37;96555.78;;;18.32;60.06
60874;BME280;46715;40.642;-7.920;2023-02-22T08:32:38;96551.00;;;18.60;59.59
60874;BME280;46715;40.642;-7.920;2023-02-22T08:34:39;96559.22;;;18.41;59.51
60874;BME280;46715;40.642;-7.920;2023-02-22T08:36:41;96556.41;;;18.72;58.72
60874;BME280;46715;40.642;-7.920;2023-02-22T08:38:42;96556.59;;;18.67;58.12
60874;BME280;46715;40.642;-7.920;2023-02-22T08:40:43;96567.75;;;18.29;59.03
60874;BME280;46715;40.642;-7.920;2023-02-22T08:42:44;96571.19;;;17.81;59.85
60874;BME280;46715;40.642;-7.920;2023-02-22T08:44:45;96578.25;;;17.00;62.51
60874;BME280;46715;40.642;-7.920;2023-02-22T08:46:45;96574.41;;;16.47;63.31
60874;BME280;46715;40.642;-7.920;2023-02-22T08:48:50;96589.13;;;15.83;65.75
60874;BME280;46715;40.642;-7.920;2023-02-22T08:50:51;96573.34;;;15.23;68.77
60874;BME280;46715;40.642;-7.920;2023-02-22T08:52:54;96585.97;;;14.88;70.56
60874;BME280;46715;40.642;-7.920;2023-02-22T08:54:55;96580.19;;;14.72;72.09
60874;BME280;46715;40.642;-7.920;2023-02-22T08:56:56;96585.13;;;14.35;73.63
60874;BME280;46715;40.642;-7.920;2023-02-22T08:58:57;96587.63;;;14.45;73.62
60874;BME280;46715;40.642;-7.920;2023-02-22T09:00:58;96586.69;;;14.36;74.13
60874;BME280;46715;40.642;-7.920;2023-02-22T09:03:03;96590.09;;;14.37;74.85
60874;BME280;46715;40.642;-7.920;2023-02-22T09:05:05;96592.44;;;14.38;74.70
60874;BME280;46715;40.642;-7.920;2023-02-22T09:07:06;96588.94;;;14.24;74.72
60874;BME280;46715;40.642;-7.920;2023-02-22T09:09:07;96595.69;;;14.30;74.88
60874;BME280;46715;40.642;-7.920;2023-02-22T09:11:13;96584.91;;;14.31;75.08
60874;BME280;46715;40.642;-7.920;2023-02-22T09:13:20;96594.06;;;14.34;74.63
60874;BME280;46715;40.642;-7.920;2023-02-22T09:15:21;96592.66;;;14.42;74.85
60874;BME280;46715;40.642;-7.920;2023-02-22T09:17:22;96586.69;;;14.36;75.25
60874;BME280;46715;40.642;-7.920;2023-02-22T09:19:23;96592.69;;;14.37;75.66
60874;BME280;46715;40.642;-7.920;2023-02-22T09:21:24;96588.38;;;14.27;76.48
60874;BME280;46715;40.642;-7.920;2023-02-22T09:23:25;96597.88;;;14.23;76.90
60874;BME280;46715;40.642;-7.920;2023-02-22T09:25:29;96585.66;;;13.94;77.96
60874;BME280;46715;40.642;-7.920;2023-02-22T09:27:30;96587.53;;;13.88;78.27
60874;BME280;46715;40.642;-7.920;2023-02-22T09:29:31;96594.34;;;13.89;79.07
60874;BME280;46715;40.642;-7.920;2023-02-22T09:31:37;96594.72;;;14.02;78.85
60874;BME280;46715;40.642;-7.920;2023-02-22T09:33:40;96591.72;;;14.13;78.37
60874;BME280;46715;40.642;-7.920;2023-02-22T09:35:41;96598.16;;;14.21;77.34
60874;BME280;46715;40.642;-7.920;2023-02-22T09:37:46;96593.13;;;14.25;77.27
60874;BME280;46715;40.642;-7.920;2023-02-22T09:39:46;96583.94;;;14.03;78.00
60874;BME280;46715;40.642;-7.920;2023-02-22T09:41:53;96597.84;;;14.04;78.66
60874;BME280;46715;40.642;-7.920;2023-02-22T09:49:15;96608.44;;;14.18;79.34
60874;BME280;46715;40.642;-7.920;2023-02-22T09:52:17;96605.63;;;14.33;78.71
60874;BME280;46715;40.642;-7.920;2023-02-22T09:57:29;96578.31;;;14.15;78.51
60874;BME280;46715;40.642;-7.920;2023-02-22T10:09:48;96597.72;;;14.76;73.98
60874;BME280;46715;40.642;-7.920;2023-02-22T10:11:59;96603.38;;;14.83;73.54
60874;BME280;46715;40.642;-7.920;2023-02-22T10:21:11;96581.66;;;14.78;72.91
60874;BME280;46715;40.642;-7.920;2023-02-22T10:26:26;96597.88;;;15.32;71.54
60874;BME280;46715;40.642;-7.920;2023-02-22T10:28:38;96581.16;;;15.28;70.55
60874;BME280;46715;40.642;-7.920;2023-02-22T10:31:11;96592.84;;;15.36;69.68
60874;BME280;46715;40.642;-7.920;2023-02-22T10:36:48;96586.84;;;15.77;68.78
60874;BME280;46715;40.642;-7.920;2023-02-22T10:53:25;96584.00;;;16.29;65.18
60874;BME280;46715;40.642;-7.920;2023-02-22T10:55:29;96574.38;;;16.24;64.40
60874;BME280;46715;40.642;-7.920;2023-02-22T11:04:59;96592.34;;;15.94;66.64
60874;BME280;46715;40.642;-7.920;2023-02-22T11:07:22;96582.84;;;16.21;66.46
60874;BME280;46715;40.642;-7.920;2023-02-22T11:09:45;96583.19;;;16.56;66.13
60874;BME280;46715;40.642;-7.920;2023-02-22T11:12:31;96574.06;;;16.40;63.61
60874;BME280;46715;40.642;-7.920;2023-02-22T11:17:05;96581.13;;;16.90;62.77
60874;BME280;46715;40.642;-7.920;2023-02-22T11:22:10;96573.25;;;16.02;64.23
60874;BME280;46715;40.642;-7.920;2023-02-22T11:24:14;96563.09;;;15.68;64.37
60874;BME280;46715;40.642;-7.920;2023-02-22T11:26:22;96573.66;;;15.35;65.92
60874;BME280;46715;40.642;-7.920;2023-02-22T11:28:35;96570.28;;;15.76;64.07
60874;BME280;46715;40.642;-7.920;2023-02-22T11:30:50;96568.25;;;15.59;65.33
60874;BME280;46715;40.642;-7.920;2023-02-22T11:33:26;96565.44;;;15.97;64.92
60874;BME280;46715;40.642;-7.920;2023-02-22T11:35:30;96558.56;;;16.38;62.95
60874;BME280;46715;40.642;-7.920;2023-02-22T11:37:35;96545.72;;;16.82;61.58
60874;BME280;46715;40.642;-7.920;2023-02-22T11:39:43;96553.00;;;17.30;60.50
60874;BME280;46715;40.642;-7.920;2023-02-22T11:41:44;96552.13;;;17.12;59.79
60874;BME280;46715;40.642;-7.920;2023-02-22T11:43:47;96551.03;;;16.68;60.72
60874;BME280;46715;40.642;-7.920;2023-02-22T11:45:58;96537.31;;;17.25;59.30
60874;BME280;46715;40.642;-7.920;2023-02-22T11:48:04;96546.56;;;17.45;59.36
60874;BME280;46715;40.642;-7.920;2023-02-22T11:58:25;96543.34;;;16.94;60.43
60874;BME280;46715;40.642;-7.920;2023-02-22T12:20:11;96512.22;;;15.03;61.19
60874;BME280;46715;40.642;-7.920;2023-02-22T12:22:34;96512.19;;;14.89;60.92
60874;BME280;46715;40.642;-7.920;2023-02-22T12:25:19;96514.47;;;14.77;61.03
60874;BME280;46715;40.642;-7.920;2023-02-22T12:27:44;96528.19;;;14.74;62.40
60874;BME280;46715;40.642;-7.920;2023-02-22T12:29:57;96516.84;;;14.78;62.91
60874;BME280;46715;40.642;-7.920;2023-02-22T12:32:13;96525.84;;;14.53;64.17
60874;BME280;46715;40.642;-7.920;2023-02-22T12:34:52;96529.41;;;14.62;64.19
60874;BME280;46715;40.642;-7.920;2023-02-22T12:37:27;96521.16;;;14.50;64.97
60874;BME280;46715;40.642;-7.920;2023-02-22T12:41:45;96520.28;;;14.22;64.66
60874;BME280;46715;40.642;-7.920;2023-02-22T12:44:20;96515.38;;;14.15;65.21
60874;BME280;46715;40.642;-7.920;2023-02-22T12:46:37;96500.41;;;14.15;66.60
60874;BME280;46715;40.642;-7.920;2023-02-22T12:53:25;96522.81;;;14.27;65.18
60874;BME280;46715;40.642;-7.920;2023-02-22T12:55:43;96508.63;;;14.47;65.74